DAL1419 KFLL-KJFK
Flight info
| Callsign | DAL1419 |
|---|---|
| Flight time | 2h 27m |
| Altitude | 37000 |
| Route | FEALX2 ETECK ROWSY Y309 FLRDA SAGGY CHIEZ Q161 KALDA Q108 SIE CAMRN5 |
| Aircraft | B738/M-SDE2E3FGHIRWXY/LB1 |
Departure
| Time | 2026-05-04 16:02 |
|---|---|
| Airport | Fort Lauderdale Hollywood International Airport (KFLL) |
Arrival
| Time | 2026-05-04 18:29 |
|---|---|
| Airport | John F. Kennedy International Airport (KJFK) |
| Time | Latitude | Longitude | Altitude | Speed | Heading |
|---|---|---|---|---|---|
| 2026-05-04 15:34 | 26.07339 | -80.14424 | 15 ft | 0 kts | 102° |
| 2026-05-04 15:50 | 26.07341 | -80.14436 | 15 ft | 3 kts | 102° |
| 2026-05-04 15:50 | 26.07345 | -80.14457 | 16 ft | 2 kts | 102° |
| 2026-05-04 15:51 | 26.07351 | -80.14479 | 17 ft | 3 kts | 127° |
| 2026-05-04 15:51 | 26.07366 | -80.14491 | 17 ft | 3 kts | 177° |
| 2026-05-04 15:51 | 26.07386 | -80.14492 | 15 ft | 3 kts | 166° |
| 2026-05-04 15:51 | 26.07405 | -80.14502 | 15 ft | 3 kts | 137° |
| 2026-05-04 15:52 | 26.07420 | -80.14514 | 15 ft | 3 kts | 180° |
| 2026-05-04 15:52 | 26.07438 | -80.14512 | 16 ft | 3 kts | 229° |
| 2026-05-04 15:52 | 26.07443 | -80.14499 | 16 ft | 3 kts | 306° |
| 2026-05-04 15:52 | 26.07430 | -80.14491 | 16 ft | 3 kts | 0° |
| 2026-05-04 15:53 | 26.07426 | -80.14491 | 16 ft | 1 kts | 0° |
| 2026-05-04 15:55 | 26.07435 | -80.14491 | 15 ft | 2 kts | 0° |
| 2026-05-04 15:55 | 26.07456 | -80.14491 | 15 ft | 4 kts | 0° |
| 2026-05-04 15:55 | 26.07484 | -80.14510 | 15 ft | 6 kts | 294° |
| 2026-05-04 15:55 | 26.07487 | -80.14561 | 15 ft | 8 kts | 271° |
| 2026-05-04 15:56 | 26.07488 | -80.14636 | 15 ft | 11 kts | 270° |
| 2026-05-04 15:56 | 26.07489 | -80.14726 | 15 ft | 11 kts | 269° |
| 2026-05-04 15:56 | 26.07488 | -80.14821 | 15 ft | 14 kts | 270° |
| 2026-05-04 15:56 | 26.07488 | -80.14944 | 15 ft | 17 kts | 271° |
| 2026-05-04 15:57 | 26.07489 | -80.15039 | 15 ft | 19 kts | 271° |
| 2026-05-04 15:57 | 26.07490 | -80.15201 | 15 ft | 22 kts | 270° |
| 2026-05-04 15:57 | 26.07491 | -80.15451 | 15 ft | 26 kts | 270° |
| 2026-05-04 15:57 | 26.07493 | -80.15665 | 15 ft | 29 kts | 271° |
| 2026-05-04 15:58 | 26.07494 | -80.15893 | 15 ft | 28 kts | 270° |
| 2026-05-04 15:58 | 26.07494 | -80.16033 | 15 ft | 27 kts | 270° |
| 2026-05-04 15:58 | 26.07496 | -80.16233 | 15 ft | 25 kts | 271° |
| 2026-05-04 15:58 | 26.07497 | -80.16420 | 15 ft | 23 kts | 270° |
| 2026-05-04 15:59 | 26.07497 | -80.16583 | 15 ft | 13 kts | 270° |
| 2026-05-04 15:59 | 26.07537 | -80.16645 | 15 ft | 11 kts | 346° |
| 2026-05-04 15:59 | 26.07598 | -80.16643 | 16 ft | 6 kts | 2° |
| 2026-05-04 15:59 | 26.07637 | -80.16642 | 16 ft | 6 kts | 1° |
| 2026-05-04 16:00 | 26.07675 | -80.16641 | 17 ft | 5 kts | 1° |
| 2026-05-04 16:00 | 26.07696 | -80.16615 | 17 ft | 1 kts | 90° |
| 2026-05-04 16:01 | 26.07696 | -80.16601 | 17 ft | 6 kts | 90° |
| 2026-05-04 16:01 | 26.07694 | -80.16350 | 19 ft | 69 kts | 90° |
| 2026-05-04 16:01 | 26.07691 | -80.15546 | 14 ft | 137 kts | 91° |
| 2026-05-04 16:01 | 26.07675 | -80.14316 | 204 ft | 177 kts | 89° |
| 2026-05-04 16:02 | 26.07641 | -80.12932 | 991 ft | 183 kts | 86° |
| 2026-05-04 16:02 | 26.07709 | -80.11504 | 1743 ft | 192 kts | 81° |
| 2026-05-04 16:02 | 26.07823 | -80.08244 | 2541 ft | 220 kts | 84° |
| 2026-05-04 16:03 | 26.07824 | -80.06502 | 3045 ft | 230 kts | 87° |
| 2026-05-04 16:03 | 26.07828 | -80.04701 | 3610 ft | 241 kts | 88° |
| 2026-05-04 16:03 | 26.07837 | -80.02733 | 3885 ft | 266 kts | 86° |
| 2026-05-04 16:03 | 26.08031 | -80.00678 | 4376 ft | 273 kts | 66° |
| 2026-05-04 16:04 | 26.08981 | -79.98876 | 5144 ft | 274 kts | 51° |
| 2026-05-04 16:04 | 26.11274 | -79.95416 | 6599 ft | 279 kts | 52° |
| 2026-05-04 16:04 | 26.12435 | -79.93634 | 7127 ft | 290 kts | 51° |
| 2026-05-04 16:05 | 26.13642 | -79.91817 | 7813 ft | 293 kts | 51° |
| 2026-05-04 16:05 | 26.14863 | -79.89968 | 8432 ft | 300 kts | 51° |
| 2026-05-04 16:05 | 26.17361 | -79.86154 | 9787 ft | 309 kts | 51° |
| 2026-05-04 16:06 | 26.18622 | -79.84224 | 10317 ft | 319 kts | 51° |
| 2026-05-04 16:06 | 26.22402 | -79.78441 | 11003 ft | 366 kts | 51° |
| 2026-05-04 16:07 | 26.24430 | -79.75320 | 11724 ft | 375 kts | 51° |
| 2026-05-04 16:07 | 26.29105 | -79.68137 | 13486 ft | 391 kts | 50° |
| 2026-05-04 16:08 | 26.30849 | -79.65795 | 14058 ft | 394 kts | 43° |
| 2026-05-04 16:08 | 26.36715 | -79.59224 | 15863 ft | 404 kts | 40° |
| 2026-05-04 16:09 | 26.40708 | -79.54723 | 17022 ft | 412 kts | 41° |
| 2026-05-04 16:09 | 26.44727 | -79.50105 | 18137 ft | 421 kts | 41° |
| 2026-05-04 16:10 | 26.48838 | -79.45356 | 19178 ft | 427 kts | 41° |
| 2026-05-04 16:11 | 26.55108 | -79.38144 | 20653 ft | 435 kts | 38° |
| 2026-05-04 16:11 | 26.57478 | -79.36147 | 21141 ft | 430 kts | 26° |
| 2026-05-04 16:12 | 26.65247 | -79.31026 | 22654 ft | 436 kts | 24° |
| 2026-05-04 16:12 | 26.73150 | -79.25774 | 24000 ft | 444 kts | 25° |
| 2026-05-04 16:13 | 26.78450 | -79.22169 | 24775 ft | 450 kts | 25° |
| 2026-05-04 16:13 | 26.83809 | -79.18507 | 25541 ft | 455 kts | 25° |
| 2026-05-04 16:14 | 26.89261 | -79.14778 | 26271 ft | 460 kts | 24° |
| 2026-05-04 16:14 | 26.94755 | -79.11018 | 26980 ft | 465 kts | 24° |
| 2026-05-04 16:15 | 27.03082 | -79.05313 | 27994 ft | 473 kts | 24° |
| 2026-05-04 16:16 | 27.08734 | -79.01435 | 28661 ft | 478 kts | 24° |
| 2026-05-04 16:16 | 27.17282 | -78.95559 | 29614 ft | 485 kts | 24° |
| 2026-05-04 16:17 | 27.23081 | -78.91567 | 30198 ft | 490 kts | 24° |
| 2026-05-04 16:18 | 27.31835 | -78.85529 | 30976 ft | 494 kts | 24° |
| 2026-05-04 16:18 | 27.34733 | -78.83528 | 31295 ft | 494 kts | 24° |
| 2026-05-04 16:19 | 27.43858 | -78.79015 | 32325 ft | 461 kts | 358° |
| 2026-05-04 16:19 | 27.50186 | -78.78183 | 32996 ft | 459 kts | 358° |
| 2026-05-04 16:20 | 27.59710 | -78.76872 | 33989 ft | 457 kts | 358° |
| 2026-05-04 16:20 | 27.65988 | -78.75960 | 34531 ft | 457 kts | 359° |
| 2026-05-04 16:21 | 27.75499 | -78.74563 | 35181 ft | 459 kts | 358° |
| 2026-05-04 16:22 | 27.81817 | -78.73633 | 35593 ft | 460 kts | 358° |
| 2026-05-04 16:22 | 27.91322 | -78.72233 | 36254 ft | 461 kts | 358° |
| 2026-05-04 16:23 | 28.00867 | -78.70824 | 36862 ft | 461 kts | 358° |
| 2026-05-04 16:24 | 28.13645 | -78.68939 | 37104 ft | 465 kts | 359° |
| 2026-05-04 16:25 | 28.20043 | -78.67986 | 37137 ft | 461 kts | 359° |
| 2026-05-04 16:26 | 28.42017 | -78.64722 | 37111 ft | 453 kts | 358° |
| 2026-05-04 16:28 | 28.57746 | -78.62384 | 37124 ft | 458 kts | 358° |
| 2026-05-04 16:29 | 28.79939 | -78.59063 | 37138 ft | 463 kts | 358° |
| 2026-05-04 16:31 | 28.95876 | -78.56667 | 37125 ft | 460 kts | 358° |
| 2026-05-04 16:32 | 29.14789 | -78.53819 | 37143 ft | 455 kts | 358° |
| 2026-05-04 16:33 | 29.27297 | -78.51929 | 37137 ft | 452 kts | 358° |
| 2026-05-04 16:34 | 29.36658 | -78.50512 | 37144 ft | 452 kts | 358° |
| 2026-05-04 16:35 | 29.55348 | -78.47560 | 37148 ft | 454 kts | 359° |
| 2026-05-04 16:36 | 29.64704 | -78.45876 | 37161 ft | 457 kts | 359° |
| 2026-05-04 16:37 | 29.74153 | -78.44194 | 37152 ft | 458 kts | 359° |
| 2026-05-04 16:38 | 29.86758 | -78.41961 | 37144 ft | 459 kts | 359° |
| 2026-05-04 16:39 | 30.02541 | -78.39157 | 37151 ft | 459 kts | 359° |
| 2026-05-04 16:40 | 30.15098 | -78.36918 | 37155 ft | 456 kts | 359° |
| 2026-05-04 16:41 | 30.30774 | -78.34118 | 37160 ft | 454 kts | 359° |
| 2026-05-04 16:43 | 30.46365 | -78.31323 | 37161 ft | 453 kts | 359° |
| 2026-05-04 16:43 | 30.55712 | -78.29644 | 37161 ft | 453 kts | 359° |
| 2026-05-04 16:45 | 30.74359 | -78.26284 | 37196 ft | 454 kts | 359° |
| 2026-05-04 16:46 | 30.88939 | -78.23645 | 37171 ft | 454 kts | 359° |
| 2026-05-04 16:47 | 31.01415 | -78.21131 | 37178 ft | 458 kts | 2° |
| 2026-05-04 16:48 | 31.13960 | -78.18263 | 37171 ft | 458 kts | 1° |
| 2026-05-04 16:49 | 31.26448 | -78.15471 | 37205 ft | 458 kts | 2° |
| 2026-05-04 16:50 | 31.39008 | -78.12653 | 37170 ft | 459 kts | 2° |
| 2026-05-04 16:51 | 31.48393 | -78.10721 | 37172 ft | 456 kts | 359° |
| 2026-05-04 16:52 | 31.60988 | -78.08676 | 37178 ft | 457 kts | 359° |
| 2026-05-04 16:53 | 31.70434 | -78.07076 | 37171 ft | 458 kts | 360° |
| 2026-05-04 16:54 | 31.83048 | -78.04905 | 37172 ft | 458 kts | 0° |
| 2026-05-04 16:55 | 32.01953 | -78.01642 | 37166 ft | 458 kts | 0° |
| 2026-05-04 16:56 | 32.17715 | -77.98913 | 37170 ft | 458 kts | 0° |
| 2026-05-04 16:57 | 32.27150 | -77.97273 | 37173 ft | 458 kts | 0° |
| 2026-05-04 16:58 | 32.39797 | -77.95072 | 37161 ft | 459 kts | 0° |
| 2026-05-04 17:00 | 32.58856 | -77.91744 | 37198 ft | 464 kts | 1° |
| 2026-05-04 17:01 | 32.74840 | -77.88938 | 37165 ft | 464 kts | 1° |
| 2026-05-04 17:02 | 32.87539 | -77.86702 | 37161 ft | 460 kts | 1° |
| 2026-05-04 17:03 | 32.97039 | -77.85026 | 37162 ft | 458 kts | 1° |
| 2026-05-04 17:03 | 33.06470 | -77.83359 | 37162 ft | 456 kts | 1° |
| 2026-05-04 17:04 | 33.19016 | -77.81136 | 37166 ft | 456 kts | 1° |
| 2026-05-04 17:05 | 33.31444 | -77.78927 | 37152 ft | 456 kts | 1° |
| 2026-05-04 17:06 | 33.40600 | -77.77296 | 37160 ft | 457 kts | 1° |
| 2026-05-04 17:07 | 33.48959 | -77.75803 | 37155 ft | 458 kts | 1° |
| 2026-05-04 17:07 | 33.56348 | -77.74480 | 37154 ft | 458 kts | 1° |
| 2026-05-04 17:08 | 33.65788 | -77.72788 | 37148 ft | 459 kts | 1° |
| 2026-05-04 17:09 | 33.72110 | -77.71586 | 37144 ft | 460 kts | 2° |
| 2026-05-04 17:09 | 33.78428 | -77.70191 | 37143 ft | 460 kts | 3° |
| 2026-05-04 17:10 | 33.94134 | -77.66706 | 37147 ft | 459 kts | 2° |
| 2026-05-04 17:11 | 34.00419 | -77.65331 | 37138 ft | 458 kts | 2° |
| 2026-05-04 17:12 | 34.09792 | -77.63276 | 37138 ft | 457 kts | 2° |
| 2026-05-04 17:13 | 34.25429 | -77.59835 | 37128 ft | 456 kts | 2° |
| 2026-05-04 17:14 | 34.37879 | -77.57085 | 37158 ft | 456 kts | 2° |
| 2026-05-04 17:15 | 34.47248 | -77.55011 | 37125 ft | 456 kts | 2° |
| 2026-05-04 17:15 | 34.53462 | -77.53144 | 37113 ft | 469 kts | 16° |
| 2026-05-04 17:16 | 34.59349 | -77.49688 | 37123 ft | 474 kts | 20° |
| 2026-05-04 17:17 | 34.71143 | -77.42453 | 37116 ft | 474 kts | 19° |
| 2026-05-04 17:18 | 34.82991 | -77.35338 | 37123 ft | 474 kts | 19° |
| 2026-05-04 17:19 | 34.94796 | -77.28238 | 37125 ft | 474 kts | 19° |
| 2026-05-04 17:20 | 35.06610 | -77.21105 | 37111 ft | 472 kts | 19° |
| 2026-05-04 17:20 | 35.15429 | -77.15765 | 37121 ft | 472 kts | 19° |
| 2026-05-04 17:21 | 35.27180 | -77.08629 | 37105 ft | 472 kts | 19° |
| 2026-05-04 17:22 | 35.33053 | -77.05054 | 37104 ft | 472 kts | 19° |
| 2026-05-04 17:23 | 35.44805 | -76.97883 | 37103 ft | 472 kts | 19° |
| 2026-05-04 17:24 | 35.53657 | -76.92465 | 37144 ft | 473 kts | 19° |
| 2026-05-04 17:25 | 35.65430 | -76.85276 | 37091 ft | 474 kts | 18° |
| 2026-05-04 17:26 | 35.77252 | -76.78074 | 37125 ft | 474 kts | 18° |
| 2026-05-04 17:27 | 35.92058 | -76.68991 | 37101 ft | 476 kts | 19° |
| 2026-05-04 17:28 | 36.03683 | -76.61128 | 37102 ft | 477 kts | 21° |
| 2026-05-04 17:29 | 36.21059 | -76.49316 | 37085 ft | 473 kts | 20° |
| 2026-05-04 17:31 | 36.35443 | -76.39534 | 37077 ft | 471 kts | 21° |
| 2026-05-04 17:32 | 36.48838 | -76.30386 | 37071 ft | 471 kts | 21° |
| 2026-05-04 17:33 | 36.60329 | -76.22507 | 37063 ft | 470 kts | 21° |
| 2026-05-04 17:34 | 36.71769 | -76.14635 | 37071 ft | 470 kts | 22° |
| 2026-05-04 17:35 | 36.86093 | -76.04744 | 37047 ft | 470 kts | 22° |
| 2026-05-04 17:36 | 36.91820 | -76.00777 | 37062 ft | 471 kts | 22° |
| 2026-05-04 17:36 | 36.97517 | -75.96821 | 36773 ft | 468 kts | 22° |
| 2026-05-04 17:36 | 37.00352 | -75.94849 | 36523 ft | 463 kts | 22° |
| 2026-05-04 17:37 | 37.03159 | -75.92896 | 36266 ft | 459 kts | 22° |
| 2026-05-04 17:37 | 37.05947 | -75.90957 | 36024 ft | 458 kts | 22° |
| 2026-05-04 17:37 | 37.08759 | -75.89094 | 35769 ft | 453 kts | 17° |
| 2026-05-04 17:37 | 37.11660 | -75.87777 | 35551 ft | 443 kts | 9° |
| 2026-05-04 17:38 | 37.14628 | -75.86763 | 35316 ft | 441 kts | 8° |
| 2026-05-04 17:38 | 37.17603 | -75.85781 | 35115 ft | 441 kts | 8° |
| 2026-05-04 17:38 | 37.20570 | -75.84800 | 35077 ft | 441 kts | 8° |
| 2026-05-04 17:39 | 37.29503 | -75.81764 | 35048 ft | 444 kts | 8° |
| 2026-05-04 17:39 | 37.35438 | -75.79701 | 35070 ft | 445 kts | 9° |
| 2026-05-04 17:40 | 37.41412 | -75.77616 | 35052 ft | 445 kts | 9° |
| 2026-05-04 17:40 | 37.47365 | -75.75536 | 35043 ft | 444 kts | 9° |
| 2026-05-04 17:41 | 37.53320 | -75.73454 | 35044 ft | 443 kts | 9° |
| 2026-05-04 17:41 | 37.59218 | -75.71388 | 35044 ft | 442 kts | 9° |
| 2026-05-04 17:42 | 37.65158 | -75.69305 | 35044 ft | 442 kts | 9° |
| 2026-05-04 17:42 | 37.71088 | -75.67221 | 35050 ft | 441 kts | 9° |
| 2026-05-04 17:43 | 37.76968 | -75.65151 | 35051 ft | 441 kts | 9° |
| 2026-05-04 17:43 | 37.82886 | -75.62997 | 35044 ft | 445 kts | 14° |
| 2026-05-04 17:44 | 37.88399 | -75.59189 | 35051 ft | 456 kts | 28° |
| 2026-05-04 17:44 | 37.93562 | -75.54573 | 35039 ft | 457 kts | 29° |
| 2026-05-04 17:45 | 37.98777 | -75.49968 | 35027 ft | 455 kts | 28° |
| 2026-05-04 17:45 | 38.03995 | -75.45435 | 35034 ft | 454 kts | 28° |
| 2026-05-04 17:46 | 38.09250 | -75.41010 | 35022 ft | 452 kts | 26° |
| 2026-05-04 17:46 | 38.14514 | -75.36762 | 35028 ft | 450 kts | 26° |
| 2026-05-04 17:47 | 38.19796 | -75.32457 | 35053 ft | 451 kts | 26° |
| 2026-05-04 17:47 | 38.25204 | -75.28553 | 35037 ft | 441 kts | 14° |
| 2026-05-04 17:48 | 38.31059 | -75.26731 | 35049 ft | 429 kts | 2° |
| 2026-05-04 17:48 | 38.36961 | -75.25616 | 35036 ft | 429 kts | 2° |
| 2026-05-04 17:49 | 38.42844 | -75.24434 | 35062 ft | 430 kts | 3° |
| 2026-05-04 17:49 | 38.48780 | -75.23198 | 35035 ft | 431 kts | 3° |
| 2026-05-04 17:50 | 38.54659 | -75.21945 | 35017 ft | 431 kts | 3° |
| 2026-05-04 17:50 | 38.60581 | -75.20678 | 35020 ft | 430 kts | 3° |
| 2026-05-04 17:51 | 38.66430 | -75.19421 | 34839 ft | 426 kts | 5° |
| 2026-05-04 17:51 | 38.69296 | -75.18389 | 34555 ft | 427 kts | 15° |
| 2026-05-04 17:51 | 38.72002 | -75.16803 | 34185 ft | 429 kts | 23° |
| 2026-05-04 17:52 | 38.74503 | -75.14685 | 33798 ft | 431 kts | 30° |
| 2026-05-04 17:52 | 38.76882 | -75.12354 | 33374 ft | 428 kts | 31° |
| 2026-05-04 17:52 | 38.79215 | -75.10014 | 32995 ft | 424 kts | 32° |
| 2026-05-04 17:52 | 38.81531 | -75.07691 | 32596 ft | 420 kts | 32° |
| 2026-05-04 17:53 | 38.83823 | -75.05406 | 32250 ft | 415 kts | 31° |
| 2026-05-04 17:53 | 38.86075 | -75.03177 | 31880 ft | 412 kts | 31° |
| 2026-05-04 17:53 | 38.88337 | -75.00949 | 31500 ft | 408 kts | 31° |
| 2026-05-04 17:53 | 38.90581 | -74.98743 | 31142 ft | 404 kts | 31° |
| 2026-05-04 17:54 | 38.92809 | -74.96555 | 30787 ft | 401 kts | 31° |
| 2026-05-04 17:54 | 38.95014 | -74.94387 | 30432 ft | 397 kts | 31° |
| 2026-05-04 17:54 | 38.97210 | -74.92226 | 30072 ft | 394 kts | 31° |
| 2026-05-04 17:54 | 38.99377 | -74.90092 | 29674 ft | 390 kts | 31° |
| 2026-05-04 17:55 | 39.01492 | -74.88006 | 29312 ft | 385 kts | 31° |
| 2026-05-04 17:55 | 39.03606 | -74.85921 | 28943 ft | 381 kts | 31° |
| 2026-05-04 17:55 | 39.05701 | -74.83853 | 28586 ft | 377 kts | 31° |
| 2026-05-04 17:55 | 39.07770 | -74.81810 | 28228 ft | 373 kts | 31° |
| 2026-05-04 17:56 | 39.09825 | -74.79776 | 27852 ft | 369 kts | 32° |
| 2026-05-04 17:56 | 39.11818 | -74.77706 | 27531 ft | 367 kts | 33° |
| 2026-05-04 17:56 | 39.13768 | -74.75596 | 27182 ft | 364 kts | 34° |
| 2026-05-04 17:56 | 39.15671 | -74.73513 | 26825 ft | 361 kts | 34° |
| 2026-05-04 17:57 | 39.17582 | -74.71422 | 26478 ft | 358 kts | 34° |
| 2026-05-04 17:57 | 39.19477 | -74.69356 | 26140 ft | 355 kts | 34° |
| 2026-05-04 17:57 | 39.21365 | -74.67303 | 25785 ft | 353 kts | 34° |
| 2026-05-04 17:57 | 39.23237 | -74.65271 | 25471 ft | 351 kts | 34° |
| 2026-05-04 17:58 | 39.25083 | -74.63270 | 25134 ft | 349 kts | 34° |
| 2026-05-04 17:58 | 39.26940 | -74.61256 | 24796 ft | 347 kts | 34° |
| 2026-05-04 17:58 | 39.28788 | -74.59250 | 24452 ft | 345 kts | 34° |
| 2026-05-04 17:58 | 39.30623 | -74.57258 | 24124 ft | 344 kts | 34° |
| 2026-05-04 17:59 | 39.32449 | -74.55274 | 23797 ft | 342 kts | 34° |
| 2026-05-04 17:59 | 39.34272 | -74.53292 | 23452 ft | 341 kts | 34° |
| 2026-05-04 17:59 | 39.37867 | -74.49379 | 22748 ft | 337 kts | 34° |
| 2026-05-04 18:00 | 39.39656 | -74.47431 | 22410 ft | 334 kts | 34° |
| 2026-05-04 18:00 | 39.41431 | -74.45499 | 22098 ft | 332 kts | 34° |
| 2026-05-04 18:00 | 39.43195 | -74.43574 | 21825 ft | 332 kts | 34° |
| 2026-05-04 18:00 | 39.44964 | -74.41643 | 21482 ft | 334 kts | 34° |
| 2026-05-04 18:01 | 39.46771 | -74.39673 | 21175 ft | 343 kts | 34° |
| 2026-05-04 18:01 | 39.48593 | -74.37685 | 20823 ft | 349 kts | 35° |
| 2026-05-04 18:01 | 39.50450 | -74.35652 | 20449 ft | 349 kts | 35° |
| 2026-05-04 18:02 | 39.54131 | -74.31614 | 19755 ft | 345 kts | 35° |
| 2026-05-04 18:02 | 39.55970 | -74.29598 | 19423 ft | 343 kts | 35° |
| 2026-05-04 18:02 | 39.57792 | -74.27600 | 19081 ft | 342 kts | 35° |
| 2026-05-04 18:02 | 39.59580 | -74.25639 | 18746 ft | 341 kts | 35° |
| 2026-05-04 18:03 | 39.61392 | -74.23649 | 18412 ft | 342 kts | 35° |
| 2026-05-04 18:03 | 39.63216 | -74.21645 | 18029 ft | 342 kts | 35° |
| 2026-05-04 18:03 | 39.65034 | -74.19646 | 17658 ft | 341 kts | 35° |
| 2026-05-04 18:03 | 39.66829 | -74.17670 | 17282 ft | 340 kts | 35° |
| 2026-05-04 18:04 | 39.68626 | -74.15690 | 16932 ft | 338 kts | 36° |
| 2026-05-04 18:04 | 39.70418 | -74.13715 | 16583 ft | 336 kts | 36° |
| 2026-05-04 18:04 | 39.73955 | -74.09812 | 15907 ft | 333 kts | 36° |
| 2026-05-04 18:05 | 39.75717 | -74.07865 | 15569 ft | 332 kts | 36° |
| 2026-05-04 18:05 | 39.77473 | -74.05924 | 15245 ft | 331 kts | 36° |
| 2026-05-04 18:05 | 39.79230 | -74.03982 | 14912 ft | 331 kts | 36° |
| 2026-05-04 18:05 | 39.80981 | -74.02044 | 14588 ft | 330 kts | 36° |
| 2026-05-04 18:06 | 39.84503 | -73.98215 | 13906 ft | 327 kts | 30° |
| 2026-05-04 18:06 | 39.86443 | -73.96692 | 13553 ft | 322 kts | 23° |
| 2026-05-04 18:06 | 39.88422 | -73.95352 | 13196 ft | 320 kts | 22° |
| 2026-05-04 18:07 | 39.90383 | -73.94045 | 12859 ft | 319 kts | 22° |
| 2026-05-04 18:07 | 39.92349 | -73.92711 | 12536 ft | 317 kts | 22° |
| 2026-05-04 18:07 | 39.94290 | -73.91368 | 12211 ft | 315 kts | 23° |
| 2026-05-04 18:07 | 39.96221 | -73.90013 | 11882 ft | 314 kts | 23° |
| 2026-05-04 18:08 | 39.98139 | -73.88657 | 11566 ft | 312 kts | 24° |
| 2026-05-04 18:08 | 40.00040 | -73.87308 | 11270 ft | 310 kts | 23° |
| 2026-05-04 18:08 | 40.01923 | -73.86018 | 11036 ft | 305 kts | 24° |
| 2026-05-04 18:08 | 40.03731 | -73.84613 | 10997 ft | 301 kts | 27° |
| 2026-05-04 18:09 | 40.07153 | -73.81778 | 10904 ft | 281 kts | 27° |
| 2026-05-04 18:09 | 40.10395 | -73.79045 | 10415 ft | 278 kts | 27° |
| 2026-05-04 18:10 | 40.12017 | -73.77678 | 10172 ft | 276 kts | 27° |
| 2026-05-04 18:10 | 40.13634 | -73.76317 | 9902 ft | 275 kts | 27° |
| 2026-05-04 18:10 | 40.15242 | -73.74966 | 9632 ft | 274 kts | 27° |
| 2026-05-04 18:10 | 40.16847 | -73.73621 | 9347 ft | 273 kts | 27° |
| 2026-05-04 18:11 | 40.18426 | -73.72299 | 9077 ft | 272 kts | 27° |
| 2026-05-04 18:11 | 40.20024 | -73.70967 | 8776 ft | 272 kts | 27° |
| 2026-05-04 18:11 | 40.21621 | -73.69640 | 8493 ft | 271 kts | 27° |
| 2026-05-04 18:11 | 40.23215 | -73.68320 | 8225 ft | 270 kts | 27° |
| 2026-05-04 18:12 | 40.24802 | -73.67009 | 7953 ft | 269 kts | 27° |
| 2026-05-04 18:12 | 40.26387 | -73.65700 | 7681 ft | 269 kts | 27° |
| 2026-05-04 18:12 | 40.27946 | -73.64415 | 7427 ft | 268 kts | 27° |
| 2026-05-04 18:12 | 40.29528 | -73.63112 | 7140 ft | 268 kts | 27° |
| 2026-05-04 18:13 | 40.31103 | -73.61816 | 6893 ft | 267 kts | 27° |
| 2026-05-04 18:13 | 40.32678 | -73.60525 | 6631 ft | 266 kts | 27° |
| 2026-05-04 18:13 | 40.35818 | -73.57956 | 6101 ft | 265 kts | 27° |
| 2026-05-04 18:14 | 40.37364 | -73.56696 | 5844 ft | 264 kts | 27° |
| 2026-05-04 18:14 | 40.38928 | -73.55423 | 5603 ft | 263 kts | 27° |
| 2026-05-04 18:14 | 40.40488 | -73.54161 | 5342 ft | 262 kts | 27° |
| 2026-05-04 18:15 | 40.43612 | -73.51663 | 4817 ft | 261 kts | 27° |
| 2026-05-04 18:15 | 40.46736 | -73.49259 | 4292 ft | 259 kts | 21° |
| 2026-05-04 18:15 | 40.48388 | -73.48346 | 4075 ft | 257 kts | 18° |
| 2026-05-04 18:16 | 40.50057 | -73.47491 | 4023 ft | 256 kts | 17° |
| 2026-05-04 18:16 | 40.51720 | -73.46642 | 4016 ft | 256 kts | 17° |
| 2026-05-04 18:16 | 40.53367 | -73.45803 | 4002 ft | 256 kts | 17° |
| 2026-05-04 18:17 | 40.56720 | -73.44096 | 4003 ft | 259 kts | 17° |
| 2026-05-04 18:17 | 40.58402 | -73.43242 | 3996 ft | 259 kts | 17° |
| 2026-05-04 18:17 | 40.61753 | -73.41539 | 4001 ft | 260 kts | 17° |
| 2026-05-04 18:18 | 40.63440 | -73.40678 | 4003 ft | 259 kts | 17° |
| 2026-05-04 18:18 | 40.64555 | -73.40109 | 4006 ft | 259 kts | 17° |
| 2026-05-04 18:18 | 40.66234 | -73.39246 | 3997 ft | 259 kts | 17° |
| 2026-05-04 18:18 | 40.67916 | -73.38383 | 4004 ft | 259 kts | 17° |
| 2026-05-04 18:19 | 40.71269 | -73.36658 | 3997 ft | 256 kts | 17° |
| 2026-05-04 18:19 | 40.72915 | -73.35819 | 3987 ft | 249 kts | 15° |
| 2026-05-04 18:19 | 40.74562 | -73.35537 | 3992 ft | 236 kts | 345° |
| 2026-05-04 18:20 | 40.76008 | -73.36365 | 3911 ft | 223 kts | 315° |
| 2026-05-04 18:20 | 40.77093 | -73.37789 | 3693 ft | 219 kts | 308° |
| 2026-05-04 18:20 | 40.78117 | -73.39263 | 3397 ft | 220 kts | 307° |
| 2026-05-04 18:20 | 40.79168 | -73.40782 | 3030 ft | 225 kts | 307° |
| 2026-05-04 18:21 | 40.80223 | -73.42316 | 2798 ft | 225 kts | 307° |
| 2026-05-04 18:21 | 40.81273 | -73.43828 | 2636 ft | 221 kts | 307° |
| 2026-05-04 18:21 | 40.82215 | -73.45399 | 2378 ft | 215 kts | 290° |
| 2026-05-04 18:21 | 40.82424 | -73.47216 | 2314 ft | 196 kts | 261° |
| 2026-05-04 18:22 | 40.82230 | -73.48935 | 2221 ft | 185 kts | 258° |
| 2026-05-04 18:22 | 40.82017 | -73.50584 | 2085 ft | 180 kts | 257° |
| 2026-05-04 18:22 | 40.81800 | -73.52224 | 2008 ft | 180 kts | 257° |
| 2026-05-04 18:22 | 40.81584 | -73.53844 | 1980 ft | 177 kts | 257° |
| 2026-05-04 18:23 | 40.81369 | -73.55437 | 1980 ft | 177 kts | 257° |
| 2026-05-04 18:23 | 40.81145 | -73.57024 | 1988 ft | 178 kts | 257° |
| 2026-05-04 18:23 | 40.80920 | -73.58628 | 1967 ft | 175 kts | 257° |
| 2026-05-04 18:23 | 40.80705 | -73.60198 | 1944 ft | 171 kts | 258° |
| 2026-05-04 18:24 | 40.80478 | -73.61749 | 1983 ft | 175 kts | 256° |
| 2026-05-04 18:24 | 40.79923 | -73.63149 | 1962 ft | 175 kts | 219° |
| 2026-05-04 18:24 | 40.78858 | -73.63951 | 1978 ft | 180 kts | 216° |
| 2026-05-04 18:24 | 40.77911 | -73.64945 | 2001 ft | 172 kts | 219° |
| 2026-05-04 18:25 | 40.76932 | -73.65768 | 2014 ft | 161 kts | 213° |
| 2026-05-04 18:25 | 40.75983 | -73.66505 | 1998 ft | 156 kts | 212° |
| 2026-05-04 18:25 | 40.75047 | -73.67234 | 2012 ft | 156 kts | 213° |
| 2026-05-04 18:25 | 40.74115 | -73.67964 | 1983 ft | 155 kts | 212° |
| 2026-05-04 18:26 | 40.73182 | -73.68695 | 1981 ft | 158 kts | 213° |
| 2026-05-04 18:26 | 40.72213 | -73.69456 | 1803 ft | 163 kts | 213° |
| 2026-05-04 18:26 | 40.71242 | -73.70216 | 1574 ft | 159 kts | 212° |
| 2026-05-04 18:26 | 40.70321 | -73.70937 | 1361 ft | 152 kts | 213° |
| 2026-05-04 18:27 | 40.69435 | -73.71632 | 1178 ft | 144 kts | 213° |
| 2026-05-04 18:27 | 40.68582 | -73.72302 | 1008 ft | 137 kts | 213° |
| 2026-05-04 18:27 | 40.67768 | -73.72940 | 811 ft | 138 kts | 211° |
| 2026-05-04 18:27 | 40.66921 | -73.73604 | 585 ft | 140 kts | 208° |
| 2026-05-04 18:28 | 40.66105 | -73.74246 | 413 ft | 136 kts | 210° |
| 2026-05-04 18:28 | 40.65302 | -73.74925 | 252 ft | 139 kts | 206° |
| 2026-05-04 18:28 | 40.64459 | -73.75548 | 57 ft | 139 kts | 209° |
| 2026-05-04 18:28 | 40.63698 | -73.76133 | 21 ft | 106 kts | 210° |
| 2026-05-04 18:29 | 40.63251 | -73.76483 | 22 ft | 37 kts | 211° |
| 2026-05-04 18:29 | 40.63058 | -73.76655 | 19 ft | 28 kts | 224° |
| 2026-05-04 18:29 | 40.62967 | -73.76803 | 20 ft | 20 kts | 238° |
| 2026-05-04 18:29 | 40.62928 | -73.76918 | 19 ft | 10 kts | 262° |
| 2026-05-04 18:30 | 40.62982 | -73.77086 | 20 ft | 10 kts | 301° |
| 2026-05-04 18:30 | 40.63017 | -73.77162 | 20 ft | 10 kts | 300° |
| 2026-05-04 18:30 | 40.63053 | -73.77242 | 20 ft | 11 kts | 302° |
| 2026-05-04 18:31 | 40.63098 | -73.77342 | 20 ft | 15 kts | 302° |
| 2026-05-04 18:31 | 40.63159 | -73.77475 | 21 ft | 18 kts | 301° |
| 2026-05-04 18:31 | 40.63229 | -73.77629 | 22 ft | 21 kts | 300° |
| 2026-05-04 18:31 | 40.63287 | -73.77758 | 23 ft | 14 kts | 302° |
| 2026-05-04 18:32 | 40.63342 | -73.77826 | 23 ft | 12 kts | 359° |
| 2026-05-04 18:32 | 40.63429 | -73.77769 | 21 ft | 16 kts | 31° |
| 2026-05-04 18:32 | 40.63505 | -73.77737 | 20 ft | 12 kts | 333° |
| 2026-05-04 18:32 | 40.63548 | -73.77810 | 19 ft | 7 kts | 300° |
| 2026-05-04 18:33 | 40.63569 | -73.77855 | 19 ft | 6 kts | 309° |
| 2026-05-04 18:33 | 40.63601 | -73.77882 | 19 ft | 5 kts | 340° |
| 2026-05-04 18:33 | 40.63638 | -73.77892 | 20 ft | 5 kts | 352° |
| 2026-05-04 18:33 | 40.63680 | -73.77899 | 19 ft | 7 kts | 353° |
| 2026-05-04 18:34 | 40.63745 | -73.77911 | 19 ft | 11 kts | 352° |
| 2026-05-04 18:34 | 40.63838 | -73.77924 | 19 ft | 16 kts | 353° |
| 2026-05-04 18:34 | 40.63960 | -73.77942 | 19 ft | 20 kts | 353° |
| 2026-05-04 18:34 | 40.64071 | -73.77992 | 19 ft | 17 kts | 330° |
| 2026-05-04 18:35 | 40.64139 | -73.78066 | 21 ft | 11 kts | 294° |
| 2026-05-04 18:35 | 40.64132 | -73.78128 | 19 ft | 4 kts | 241° |
| 2026-05-04 18:35 | 40.64124 | -73.78148 | 21 ft | 0 kts | 241° |